»·PEaware :: N222CV KBUR-KPMD

N222CV :: KBUR-KPMD

FLIGHT INFORMATION

Flight Status: Arrived
Operator: Privately registered:
United States
More flights under this callsign
Pilot: Anonymous 39523 (39523)
Aircraft: CESSNA 172 SKYHAWK
(C172)
More flights by this aircraft type
Origin: KBUR Bob Hope-Burbank
United States
Destination: KPMD Palmdale AF Plant 42
United States
More flights between these airports :: More routes between these airports
Route: VNY3 PMD
File this flight plan on PilotEdge
Remarks:
Altitude:
(Current/Filed)
7,000ft
Speed:
(Current/Filed)
110kts
Departed: 29-May-23 04:37 PM
Arrived: 29-May-23 05:20 PM
Distance/Time
Traveled:
29nm/0:43
Distance/Time
To Go:
Arrived

Flight Plot

Page will automatically refresh every two minutes.

Flight plan parsing failed; only flown route is shown


Map Options




Map Legend


Flown Route
Filed Route
Departure Airport
Arrival Airport
Navaid (VOR, NDB)
Fix

Horizontal Profiles

Position Reports

Time Latitude Longitude Heading Altitude Ground
Speed
29-May-23 16:22 34.200117 -118.366172 357 726ft 0kts
29-May-23 16:23 34.200117 -118.366172 357 726ft 0kts
29-May-23 16:24 34.200117 -118.366172 357 726ft 0kts
29-May-23 16:25 34.200117 -118.366172 357 726ft 0kts
29-May-23 16:26 34.200117 -118.366172 357 726ft 0kts
29-May-23 16:27 34.200117 -118.366172 357 726ft 0kts
29-May-23 16:28 34.200117 -118.366172 357 726ft 0kts
29-May-23 16:29 34.200117 -118.366172 357 726ft 0kts
29-May-23 16:30 34.200131 -118.366173 356 726ft 0kts
29-May-23 16:31 34.199596 -118.365777 198 723ft 13kts
29-May-23 16:32 34.199110 -118.368508 262 729ft 8kts
29-May-23 16:33 34.198817 -118.368971 194 730ft 0kts
29-May-23 16:34 34.198817 -118.368971 194 730ft 0kts
29-May-23 16:35 34.198817 -118.368971 194 730ft 0kts
29-May-23 16:36 34.197827 -118.362616 90 718ft 73kts
29-May-23 16:37 34.189432 -118.339130 180 1456ft 87kts
29-May-23 16:38 34.169459 -118.359726 224 2143ft 98kts
29-May-23 16:39 34.149666 -118.383553 224 2774ft 104kts
29-May-23 16:40 34.128538 -118.408513 224 3326ft 108kts
29-May-23 16:41 34.107233 -118.434194 239 3877ft 108kts
29-May-23 16:42 34.130272 -118.445698 1 4312ft 113kts
29-May-23 16:43 34.162114 -118.445577 1 4785ft 115kts
29-May-23 16:44 34.194606 -118.445184 1 5159ft 118kts
29-May-23 16:45 34.227441 -118.444493 1 5611ft 118kts
29-May-23 16:46 34.260521 -118.443498 1 6030ft 120kts
29-May-23 16:47 34.294117 -118.442313 0 6399ft 119kts
29-May-23 16:48 34.327769 -118.440622 1 6801ft 121kts
29-May-23 16:49 34.362708 -118.438728 1 7021ft 129kts
29-May-23 16:50 34.397741 -118.436398 1 7027ft 134kts
29-May-23 16:51 34.433948 -118.428035 60 7019ft 138kts
29-May-23 16:52 34.453681 -118.388022 59 7014ft 139kts
29-May-23 16:53 34.475010 -118.349198 60 7002ft 135kts
29-May-23 16:54 34.495684 -118.311626 59 6951ft 133kts
29-May-23 16:55 34.516244 -118.274242 59 6948ft 132kts
29-May-23 16:56 34.537085 -118.236226 61 6883ft 141kts
29-May-23 16:57 34.558796 -118.196573 60 6500ft 139kts
29-May-23 16:58 34.579700 -118.158451 59 6341ft 130kts
29-May-23 16:59 34.599260 -118.122724 59 6348ft 127kts
29-May-23 17:00 34.618922 -118.086746 59 6351ft 128kts
29-May-23 17:01 34.632599 -118.047954 92 6149ft 133kts
29-May-23 17:02 34.635763 -118.002451 91 5685ft 137kts
29-May-23 17:03 34.639076 -117.956025 90 5202ft 138kts
29-May-23 17:04 34.642326 -117.911153 89 5139ft 132kts
29-May-23 17:05 34.645479 -117.866117 89 5128ft 133kts
29-May-23 17:06 34.648603 -117.821498 87 5124ft 132kts
29-May-23 17:07 34.646743 -117.778336 142 5117ft 122kts
29-May-23 17:08 34.617045 -117.775986 193 5125ft 110kts
29-May-23 17:09 34.591106 -117.787895 260 5132ft 102kts
29-May-23 17:10 34.595545 -117.822027 276 5133ft 102kts
29-May-23 17:11 34.600606 -117.855920 275 5119ft 92kts
29-May-23 17:12 34.605450 -117.888623 275 4934ft 116kts
29-May-23 17:13 34.611317 -117.927358 276 4255ft 106kts
29-May-23 17:14 34.616016 -117.959721 272 4189ft 97kts
29-May-23 17:15 34.621212 -117.994656 274 3959ft 106kts
29-May-23 17:16 34.631798 -118.028089 297 3628ft 111kts
29-May-23 17:17 34.633805 -118.055185 257 2969ft 74kts
29-May-23 17:18 34.632643 -118.076385 259 2507ft 49kts
29-May-23 17:19 34.633743 -118.082818 357 2515ft 14kts
29-May-23 17:20 34.635571 -118.083261 272 2513ft 0kts
29-May-23 17:21 34.635571 -118.083261 272 2513ft 0kts
29-May-23 17:22 34.635571 -118.083261 272 2513ft 0kts

Navigation Log

Ident Type
Flight plan parsing failed, navigation log unavailable